createdAt,value
2023-11-29T00:01:09.590Z,-0.22
2023-11-29T00:03:36.503Z,-0.08
2023-11-29T00:06:04.482Z,-0.01
2023-11-29T00:08:31.754Z,-0.07
2023-11-29T00:10:58.741Z,-0.05
2023-11-29T00:13:25.720Z,-0.07
2023-11-29T00:15:52.782Z,-0.11
2023-11-29T00:18:19.905Z,-0.24
2023-11-29T00:20:46.933Z,-0.16
2023-11-29T00:23:14.002Z,-0.15
2023-11-29T00:25:41.151Z,-0.21
2023-11-29T00:28:08.170Z,-0.26
2023-11-29T00:30:35.174Z,-0.14
2023-11-29T00:33:02.245Z,-0.23
2023-11-29T00:35:29.344Z,-0.20
2023-11-29T00:37:56.321Z,-0.18
2023-11-29T00:40:24.520Z,-0.16
2023-11-29T00:42:57.312Z,-0.13
2023-11-29T00:45:27.901Z,-0.12
2023-11-29T00:47:55.397Z,-0.19
2023-11-29T00:50:22.410Z,-0.22
2023-11-29T00:52:49.343Z,-0.21
2023-11-29T00:55:19.364Z,-0.19
2023-11-29T00:57:49.234Z,-0.20
2023-11-29T01:00:16.613Z,-0.22
2023-11-29T01:02:43.738Z,-0.20
2023-11-29T01:05:10.805Z,-0.23
2023-11-29T01:07:37.904Z,-0.19
2023-11-29T01:10:05.240Z,-0.24
2023-11-29T01:12:32.216Z,-0.21
2023-11-29T01:14:59.161Z,-0.15
2023-11-29T01:17:26.272Z,-0.30
2023-11-29T01:19:53.738Z,-0.18
2023-11-29T01:22:20.703Z,-0.20
2023-11-29T01:24:47.688Z,-0.14
2023-11-29T01:27:14.688Z,-0.23
2023-11-29T01:29:43.195Z,-0.16
2023-11-29T01:32:10.298Z,-0.19
2023-11-29T01:34:37.334Z,-0.25
2023-11-29T01:37:04.981Z,-0.35
2023-11-29T01:39:31.901Z,-0.38
2023-11-29T01:41:59.012Z,-0.37
2023-11-29T01:44:26.181Z,-0.37
2023-11-29T01:46:53.723Z,-0.39
2023-11-29T01:49:21.283Z,-0.49
2023-11-29T01:51:48.551Z,-0.45
2023-11-29T01:54:16.584Z,-0.48
2023-11-29T01:56:43.641Z,-0.56
2023-11-29T01:59:10.599Z,-0.53
2023-11-29T02:01:37.659Z,-0.45
2023-11-29T02:04:05.733Z,-0.33
2023-11-29T02:06:32.727Z,-0.29
2023-11-29T02:09:00.269Z,-0.42
2023-11-29T02:11:28.511Z,-0.46
2023-11-29T02:13:55.644Z,-0.40
2023-11-29T02:16:22.815Z,-0.45
2023-11-29T02:18:49.827Z,-0.51
2023-11-29T02:21:17.410Z,-0.55
2023-11-29T02:23:50.228Z,-0.59
2023-11-29T02:26:17.270Z,-0.50
2023-11-29T02:28:44.342Z,-0.48
2023-11-29T02:31:11.325Z,-0.51
2023-11-29T02:33:38.338Z,-0.50
2023-11-29T02:36:05.689Z,-0.52
2023-11-29T02:38:32.694Z,-0.58
2023-11-29T02:40:59.582Z,-0.63
2023-11-29T02:43:26.559Z,-0.57
2023-11-29T02:45:53.540Z,-0.57
2023-11-29T02:48:20.498Z,-0.64
2023-11-29T02:50:47.541Z,-0.81
2023-11-29T02:53:14.973Z,-0.74
2023-11-29T02:55:42.458Z,-0.79
2023-11-29T02:58:09.524Z,-0.77
2023-11-29T03:00:36.510Z,-0.86
2023-11-29T03:03:03.484Z,-0.80
2023-11-29T03:05:30.570Z,-0.84
2023-11-29T03:07:57.554Z,-0.80
2023-11-29T03:10:24.547Z,-0.84
2023-11-29T03:12:51.434Z,-0.80
2023-11-29T03:15:20.094Z,-0.76
2023-11-29T03:17:47.220Z,-0.76
2023-11-29T03:20:14.400Z,-0.71
2023-11-29T03:22:41.455Z,-0.80
2023-11-29T03:25:09.245Z,-0.71
2023-11-29T03:27:36.301Z,-0.75
2023-11-29T03:30:03.713Z,-0.73
2023-11-29T03:32:30.803Z,-0.62
2023-11-29T03:34:57.920Z,-0.67
2023-11-29T03:37:24.973Z,-0.69
2023-11-29T03:39:51.940Z,-0.83
2023-11-29T03:42:18.959Z,-0.77
2023-11-29T03:44:46.215Z,-0.73
2023-11-29T03:47:13.252Z,-0.77
2023-11-29T03:49:40.333Z,-0.74
2023-11-29T03:52:07.388Z,-0.71
2023-11-29T03:54:34.304Z,-0.83
2023-11-29T03:57:01.331Z,-0.76
2023-11-29T03:59:28.290Z,-0.76
2023-11-29T04:01:55.384Z,-0.79
2023-11-29T04:04:23.252Z,-0.79
2023-11-29T04:06:50.376Z,-0.83
2023-11-29T04:09:17.296Z,-0.87
2023-11-29T04:11:47.517Z,-0.86
2023-11-29T04:14:14.556Z,-0.84
2023-11-29T04:16:41.520Z,-0.80
2023-11-29T04:19:08.550Z,-0.81
2023-11-29T04:21:36.606Z,-0.85
2023-11-29T04:24:04.590Z,-0.83
2023-11-29T04:26:39.532Z,-0.86
2023-11-29T04:29:08.864Z,-0.85
2023-11-29T04:31:36.803Z,-0.99
2023-11-29T04:34:09.624Z,-1.05
2023-11-29T04:36:47.962Z,-1.06
2023-11-29T04:39:16.843Z,-1.17
2023-11-29T04:41:45.017Z,-1.23
2023-11-29T04:44:12.329Z,-1.20
2023-11-29T04:46:40.235Z,-1.06
2023-11-29T04:49:07.249Z,-1.17
2023-11-29T04:51:34.243Z,-1.17
2023-11-29T04:54:01.717Z,-1.12
2023-11-29T04:56:30.481Z,-1.12
2023-11-29T04:58:58.363Z,-1.35
2023-11-29T05:01:25.913Z,-1.35
2023-11-29T05:03:52.988Z,-1.22
2023-11-29T05:06:21.458Z,-1.34
2023-11-29T05:08:48.591Z,-1.45
2023-11-29T05:11:15.660Z,-1.40
2023-11-29T05:13:42.786Z,-1.53
2023-11-29T05:16:09.918Z,-1.47
2023-11-29T05:18:37.113Z,-1.34
2023-11-29T05:21:04.319Z,-1.42
2023-11-29T05:23:31.396Z,-1.38
2023-11-29T05:25:58.416Z,-1.44
2023-11-29T05:28:27.254Z,-1.38
2023-11-29T05:30:54.681Z,-1.55
2023-11-29T05:33:23.563Z,-1.49
2023-11-29T05:35:50.910Z,-1.47
2023-11-29T05:38:18.069Z,-1.44
2023-11-29T05:40:45.169Z,-1.45
2023-11-29T05:43:12.202Z,-1.46
2023-11-29T05:45:39.179Z,-1.38
2023-11-29T05:48:06.432Z,-1.40
2023-11-29T05:50:33.624Z,-1.44
2023-11-29T05:53:00.942Z,-1.48
2023-11-29T05:55:28.156Z,-1.57
2023-11-29T05:57:55.203Z,-1.66
2023-11-29T06:00:28.430Z,-1.57
2023-11-29T06:03:01.374Z,-1.62
2023-11-29T06:05:29.773Z,-1.53
2023-11-29T06:07:58.402Z,-1.67
2023-11-29T06:10:26.625Z,-1.51
2023-11-29T06:12:54.103Z,-1.45
2023-11-29T06:15:21.284Z,-1.48
2023-11-29T06:17:48.613Z,-1.66
2023-11-29T06:20:20.006Z,-1.58
2023-11-29T06:22:47.433Z,-1.60
2023-11-29T06:25:14.738Z,-1.55
2023-11-29T06:27:41.906Z,-1.44
2023-11-29T06:30:09.513Z,-1.43
2023-11-29T06:32:38.073Z,-1.48
2023-11-29T06:35:05.691Z,-1.40
2023-11-29T06:37:35.479Z,-1.51
2023-11-29T06:40:04.391Z,-1.51
2023-11-29T06:42:31.633Z,-1.61
2023-11-29T06:44:58.652Z,-1.71
2023-11-29T06:47:25.744Z,-1.47
2023-11-29T06:49:53.277Z,-1.49
2023-11-29T06:52:20.309Z,-1.49
2023-11-29T06:54:47.286Z,-1.55
2023-11-29T06:57:14.336Z,-1.55
2023-11-29T06:59:41.442Z,-1.75
2023-11-29T07:02:09.496Z,-1.60
2023-11-29T07:04:38.702Z,-1.53
2023-11-29T07:07:07.338Z,-1.51
2023-11-29T07:09:34.339Z,-1.38
2023-11-29T07:12:02.404Z,-1.32
2023-11-29T07:14:29.354Z,-1.26
2023-11-29T07:16:56.472Z,-1.29
2023-11-29T07:19:23.421Z,-1.26
2023-11-29T07:21:50.503Z,-1.31
2023-11-29T07:24:17.558Z,-1.22
2023-11-29T07:26:44.693Z,-1.08
2023-11-29T07:29:12.024Z,-1.10
2023-11-29T07:31:39.178Z,-1.12
2023-11-29T07:34:07.655Z,-0.94
2023-11-29T07:36:34.676Z,-0.97
2023-11-29T07:39:01.800Z,-1.03
2023-11-29T07:41:28.984Z,-0.99
2023-11-29T07:43:56.504Z,-1.07
2023-11-29T07:46:24.258Z,-1.07
2023-11-29T07:48:51.246Z,-1.06
2023-11-29T07:51:18.297Z,-1.05
2023-11-29T07:53:46.476Z,-0.98
2023-11-29T07:56:14.138Z,-0.98
2023-11-29T07:58:41.326Z,-0.96
2023-11-29T08:01:08.713Z,-0.79
2023-11-29T08:03:36.215Z,-0.72
2023-11-29T08:06:04.861Z,-0.73
2023-11-29T08:08:32.394Z,-0.79
2023-11-29T08:10:59.476Z,-0.62
2023-11-29T08:13:27.362Z,-0.45
2023-11-29T08:15:58.308Z,-0.29
2023-11-29T08:18:25.749Z,-0.37
2023-11-29T08:20:53.779Z,-0.22
2023-11-29T08:23:20.999Z,0.03
2023-11-29T08:25:48.178Z,0.12
2023-11-29T08:28:15.175Z,0.51
2023-11-29T08:30:42.469Z,0.36
2023-11-29T08:33:10.858Z,0.63
2023-11-29T08:35:38.727Z,0.87
2023-11-29T08:38:05.931Z,1.41
2023-11-29T08:40:33.206Z,1.86
2023-11-29T08:43:02.742Z,1.77
2023-11-29T08:45:32.272Z,1.45
2023-11-29T08:48:00.332Z,1.97
2023-11-29T08:50:28.518Z,1.88
2023-11-29T08:52:55.640Z,1.64
2023-11-29T08:55:22.601Z,2.63
2023-11-29T08:57:53.070Z,2.45
2023-11-29T09:00:23.056Z,2.91
2023-11-29T09:02:50.387Z,2.72
2023-11-29T09:05:21.922Z,2.21
2023-11-29T09:07:49.061Z,2.05
2023-11-29T09:10:17.183Z,1.59
2023-11-29T09:12:44.230Z,1.85
2023-11-29T09:15:11.382Z,1.33
2023-11-29T09:17:42.384Z,1.53
2023-11-29T09:20:09.907Z,1.34
2023-11-29T09:22:36.839Z,1.55
2023-11-29T09:25:06.565Z,1.81
2023-11-29T09:27:33.912Z,1.51
2023-11-29T09:30:01.991Z,1.55
2023-11-29T09:32:29.224Z,1.48
2023-11-29T09:34:56.524Z,1.51
2023-11-29T09:37:23.582Z,1.79
2023-11-29T09:39:50.692Z,2.41
2023-11-29T09:42:20.453Z,1.54
2023-11-29T09:44:48.417Z,1.78
2023-11-29T09:47:15.626Z,1.64
2023-11-29T09:49:42.680Z,1.45
2023-11-29T09:52:09.731Z,2.00
2023-11-29T09:54:36.882Z,2.23
2023-11-29T09:57:04.080Z,2.12
2023-11-29T09:59:31.266Z,1.77
2023-11-29T10:02:04.311Z,1.91
2023-11-29T10:04:34.954Z,1.82
2023-11-29T10:07:02.567Z,2.47
2023-11-29T10:09:29.578Z,2.62
2023-11-29T10:11:56.634Z,2.92
2023-11-29T10:14:23.609Z,2.98
2023-11-29T10:16:51.305Z,2.68
2023-11-29T10:19:18.469Z,3.30
2023-11-29T10:21:46.743Z,3.69
2023-11-29T10:24:24.296Z,3.83
2023-11-29T10:26:52.087Z,3.23
2023-11-29T10:29:19.366Z,3.71
2023-11-29T10:31:47.973Z,4.19
2023-11-29T10:34:15.968Z,4.36
2023-11-29T10:36:43.167Z,4.39
2023-11-29T10:39:15.397Z,3.94
2023-11-29T10:41:58.843Z,3.91
2023-11-29T10:44:31.496Z,3.81
2023-11-29T10:47:21.994Z,3.73
2023-11-29T10:49:50.673Z,3.44
2023-11-29T10:52:21.091Z,3.25
2023-11-29T10:54:48.358Z,3.59
2023-11-29T10:57:21.635Z,3.57
2023-11-29T10:59:54.273Z,3.18
2023-11-29T11:02:21.357Z,2.93
2023-11-29T11:05:03.265Z,3.19
2023-11-29T11:07:49.318Z,3.22
2023-11-29T11:10:27.860Z,2.83
2023-11-29T11:12:57.427Z,3.23
2023-11-29T11:15:26.256Z,3.10
2023-11-29T11:18:02.410Z,2.85
2023-11-29T11:20:51.544Z,2.93
2023-11-29T11:23:23.056Z,2.89
2023-11-29T11:25:54.313Z,2.99
2023-11-29T11:28:38.940Z,2.48
2023-11-29T11:31:10.097Z,2.31
2023-11-29T11:33:52.448Z,2.55
2023-11-29T11:36:26.165Z,2.48
2023-11-29T11:38:53.417Z,2.38
2023-11-29T11:41:20.663Z,2.23
2023-11-29T11:43:48.293Z,2.11
2023-11-29T11:46:17.312Z,2.28
2023-11-29T11:48:47.615Z,2.25
2023-11-29T11:51:14.992Z,2.42
2023-11-29T11:53:45.362Z,2.32
2023-11-29T11:56:22.485Z,2.02
2023-11-29T11:58:49.454Z,2.22
2023-11-29T12:01:16.520Z,2.35
2023-11-29T12:03:43.717Z,2.53
2023-11-29T12:06:11.369Z,2.41
2023-11-29T12:08:39.165Z,2.46
2023-11-29T12:11:09.403Z,2.48
2023-11-29T12:13:37.723Z,2.56
2023-11-29T12:16:15.696Z,2.94
2023-11-29T12:18:42.823Z,3.00
2023-11-29T12:21:10.156Z,3.03
2023-11-29T12:23:42.066Z,3.29
2023-11-29T12:26:14.243Z,3.35
2023-11-29T12:28:41.240Z,3.39
2023-11-29T12:31:08.289Z,3.47
2023-11-29T12:33:35.903Z,3.43
2023-11-29T12:36:05.178Z,3.41
2023-11-29T12:38:32.366Z,3.20
2023-11-29T12:40:59.310Z,3.18
2023-11-29T12:43:26.405Z,3.18
2023-11-29T12:45:55.948Z,3.16
2023-11-29T12:48:24.541Z,3.18
2023-11-29T12:50:51.592Z,3.37
2023-11-29T12:53:18.598Z,3.54
2023-11-29T12:55:45.676Z,3.26
2023-11-29T12:58:13.101Z,3.40
2023-11-29T13:00:41.334Z,3.48
2023-11-29T13:03:09.646Z,3.51
2023-11-29T13:05:36.728Z,3.54
2023-11-29T13:08:03.796Z,3.50
2023-11-29T13:10:31.167Z,3.35
2023-11-29T13:12:58.826Z,3.28
2023-11-29T13:15:25.854Z,3.23
2023-11-29T13:17:53.002Z,3.43
2023-11-29T13:20:20.043Z,3.51
2023-11-29T13:22:47.074Z,3.49
2023-11-29T13:25:14.037Z,3.34
2023-11-29T13:27:40.925Z,3.28
2023-11-29T13:30:08.501Z,3.56
2023-11-29T13:32:36.218Z,3.57
2023-11-29T13:35:03.340Z,3.59
2023-11-29T13:37:30.192Z,3.68
2023-11-29T13:39:57.461Z,3.71
2023-11-29T13:42:24.367Z,3.74
2023-11-29T13:44:51.337Z,3.80
2023-11-29T13:47:18.654Z,3.57
2023-11-29T13:49:45.715Z,3.52
2023-11-29T13:52:20.052Z,3.63
2023-11-29T13:54:50.725Z,3.25
2023-11-29T13:57:17.789Z,3.18
2023-11-29T13:59:44.814Z,2.89
2023-11-29T14:02:18.033Z,2.73
2023-11-29T14:04:46.449Z,2.65
2023-11-29T14:07:13.656Z,2.55
2023-11-29T14:09:40.656Z,2.54
2023-11-29T14:12:07.720Z,2.40
2023-11-29T14:14:34.770Z,2.24
2023-11-29T14:17:01.937Z,1.91
2023-11-29T14:19:28.925Z,1.65
2023-11-29T14:21:56.292Z,1.57
2023-11-29T14:24:23.204Z,1.37
2023-11-29T14:26:53.498Z,1.20
2023-11-29T14:29:21.250Z,1.14
2023-11-29T14:31:48.587Z,1.12
2023-11-29T14:34:15.634Z,1.07
2023-11-29T14:36:45.528Z,1.04
2023-11-29T14:39:15.466Z,0.93
2023-11-29T14:41:43.158Z,0.91
2023-11-29T14:44:11.917Z,0.81
2023-11-29T14:46:39.186Z,0.74
2023-11-29T14:49:13.463Z,0.59
2023-11-29T14:51:44.328Z,0.27
2023-11-29T14:54:11.292Z,0.25
2023-11-29T14:56:38.851Z,0.03
2023-11-29T14:59:06.088Z,-0.22
2023-11-29T15:01:33.269Z,-0.27
2023-11-29T15:04:00.747Z,-0.10
2023-11-29T15:06:27.805Z,-0.07
2023-11-29T15:08:54.826Z,-0.08
2023-11-29T15:11:21.889Z,-0.32
2023-11-29T15:13:48.983Z,-0.60
2023-11-29T15:16:15.904Z,-0.56
2023-11-29T15:18:43.013Z,-0.61
2023-11-29T15:21:10.216Z,-0.70
2023-11-29T15:23:37.224Z,-0.75
2023-11-29T15:26:04.282Z,-0.65
2023-11-29T15:28:31.656Z,-0.64
2023-11-29T15:30:58.625Z,-0.68
2023-11-29T15:33:25.612Z,-0.87
2023-11-29T15:35:55.087Z,-0.93
2023-11-29T15:38:23.070Z,-0.82
2023-11-29T15:40:50.618Z,-0.85
2023-11-29T15:43:17.740Z,-0.96
2023-11-29T15:45:44.775Z,-0.95
2023-11-29T15:48:12.021Z,-1.03
2023-11-29T15:50:39.114Z,-1.13
2023-11-29T15:53:08.079Z,-1.23
2023-11-29T15:55:35.047Z,-1.26
2023-11-29T15:58:01.956Z,-1.45
2023-11-29T16:00:28.962Z,-1.49
2023-11-29T16:02:56.109Z,-1.50
2023-11-29T16:05:23.247Z,-1.44
2023-11-29T16:07:52.015Z,-1.44
2023-11-29T16:10:20.392Z,-1.34
2023-11-29T16:12:47.385Z,-1.35
2023-11-29T16:15:14.495Z,-1.40
2023-11-29T16:17:41.661Z,-1.57
2023-11-29T16:20:09.197Z,-1.53
2023-11-29T16:22:36.296Z,-1.57
2023-11-29T16:25:03.313Z,-1.72
2023-11-29T16:27:36.491Z,-1.66
2023-11-29T16:30:06.501Z,-1.83
2023-11-29T16:32:34.456Z,-1.84
2023-11-29T16:35:01.872Z,-1.79
2023-11-29T16:37:29.011Z,-1.69
2023-11-29T16:39:56.674Z,-1.76
2023-11-29T16:42:24.966Z,-1.75
2023-11-29T16:44:52.407Z,-1.83
2023-11-29T16:47:19.721Z,-1.88
2023-11-29T16:49:46.831Z,-1.95
2023-11-29T16:52:13.941Z,-2.00
2023-11-29T16:54:41.102Z,-1.92
2023-11-29T16:57:09.258Z,-2.11
2023-11-29T16:59:37.383Z,-2.45
2023-11-29T17:02:04.704Z,-2.29
2023-11-29T17:04:31.846Z,-2.46
2023-11-29T17:06:58.768Z,-2.66
2023-11-29T17:09:25.797Z,-2.60
2023-11-29T17:11:53.347Z,-2.57
2023-11-29T17:14:21.389Z,-2.87
2023-11-29T17:16:49.064Z,-2.68
2023-11-29T17:19:15.973Z,-2.67
2023-11-29T17:21:43.022Z,-2.80
2023-11-29T17:24:10.071Z,-2.79
2023-11-29T17:26:40.441Z,-2.73
2023-11-29T17:29:07.751Z,-2.74
2023-11-29T17:31:35.999Z,-2.75
2023-11-29T17:34:02.921Z,-2.73
2023-11-29T17:36:29.877Z,-2.58
2023-11-29T17:38:56.852Z,-2.64
2023-11-29T17:41:24.601Z,-2.68
2023-11-29T17:43:51.664Z,-2.71
2023-11-29T17:46:18.687Z,-2.78
2023-11-29T17:48:45.751Z,-2.84
2023-11-29T17:51:12.851Z,-2.77
2023-11-29T17:53:39.929Z,-3.01
2023-11-29T17:56:07.240Z,-3.07
2023-11-29T17:58:34.264Z,-2.98
2023-11-29T18:01:01.253Z,-3.04
2023-11-29T18:03:28.291Z,-3.07
2023-11-29T18:05:55.355Z,-3.08
2023-11-29T18:08:22.529Z,-3.18
2023-11-29T18:10:51.612Z,-3.06
2023-11-29T18:13:21.237Z,-3.13
2023-11-29T18:15:48.774Z,-3.24
2023-11-29T18:18:15.915Z,-3.32
2023-11-29T18:20:47.476Z,-3.34
2023-11-29T18:23:14.564Z,-3.43
2023-11-29T18:25:52.011Z,-3.44
2023-11-29T18:28:23.768Z,-3.39
2023-11-29T18:30:50.781Z,-3.35
2023-11-29T18:33:17.901Z,-3.36
2023-11-29T18:35:45.161Z,-3.71
2023-11-29T18:38:12.203Z,-3.78
2023-11-29T18:40:39.652Z,-3.77
2023-11-29T18:43:06.987Z,-3.86
2023-11-29T18:45:33.974Z,-4.08
2023-11-29T18:48:01.547Z,-3.99
2023-11-29T18:50:28.913Z,-4.12
2023-11-29T18:52:55.946Z,-4.09
2023-11-29T18:55:24.532Z,-4.01
2023-11-29T18:57:51.553Z,-3.91
2023-11-29T19:00:19.076Z,-4.06
2023-11-29T19:02:46.299Z,-4.02
2023-11-29T19:05:13.600Z,-4.06
2023-11-29T19:07:40.656Z,-4.09
2023-11-29T19:10:08.288Z,-4.12
2023-11-29T19:12:35.305Z,-4.05
2023-11-29T19:15:02.537Z,-4.36
2023-11-29T19:17:29.806Z,-4.31
2023-11-29T19:19:56.907Z,-4.57
2023-11-29T19:22:24.096Z,-4.71
2023-11-29T19:24:51.077Z,-4.79
2023-11-29T19:27:18.247Z,-4.54
2023-11-29T19:29:45.992Z,-4.48
2023-11-29T19:32:13.240Z,-4.62
2023-11-29T19:34:40.389Z,-4.62
2023-11-29T19:37:08.869Z,-4.57
2023-11-29T19:39:36.584Z,-4.75
2023-11-29T19:42:04.136Z,-4.69
2023-11-29T19:44:31.445Z,-4.55
2023-11-29T19:47:07.278Z,-4.48
2023-11-29T19:49:39.970Z,-4.43
2023-11-29T19:52:09.467Z,-4.57
2023-11-29T19:54:39.208Z,-4.55
2023-11-29T19:57:07.338Z,-4.61
2023-11-29T19:59:41.261Z,-4.92
2023-11-29T20:02:08.391Z,-4.89
2023-11-29T20:04:35.446Z,-4.85
2023-11-29T20:07:02.409Z,-4.91
2023-11-29T20:09:29.651Z,-4.82
2023-11-29T20:11:57.022Z,-4.81
2023-11-29T20:14:28.980Z,-4.89
2023-11-29T20:17:00.005Z,-5.08
2023-11-29T20:19:27.058Z,-5.29
2023-11-29T20:21:54.070Z,-5.22
2023-11-29T20:24:21.178Z,-5.19
2023-11-29T20:26:51.828Z,-5.20
2023-11-29T20:29:18.982Z,-5.11
2023-11-29T20:31:46.429Z,-5.11
2023-11-29T20:34:21.330Z,-5.21
2023-11-29T20:36:58.324Z,-5.26
2023-11-29T20:39:28.765Z,-5.27
2023-11-29T20:41:57.801Z,-5.24
2023-11-29T20:44:29.801Z,-5.27
2023-11-29T20:46:57.773Z,-5.21
2023-11-29T20:49:30.634Z,-5.52
2023-11-29T20:51:57.941Z,-5.57
2023-11-29T20:54:25.905Z,-5.62
2023-11-29T20:56:53.060Z,-5.64
2023-11-29T20:59:20.162Z,-5.54
2023-11-29T21:01:47.355Z,-5.50
2023-11-29T21:04:14.687Z,-5.50
2023-11-29T21:06:41.825Z,-5.58
2023-11-29T21:09:08.856Z,-5.72
2023-11-29T21:11:35.850Z,-5.79
2023-11-29T21:14:03.581Z,-5.89
2023-11-29T21:16:31.051Z,-5.85
2023-11-29T21:18:59.718Z,-5.71
2023-11-29T21:21:28.502Z,-5.62
2023-11-29T21:23:56.026Z,-5.69
2023-11-29T21:26:23.851Z,-5.63
2023-11-29T21:28:51.290Z,-5.70
2023-11-29T21:31:19.817Z,-5.76
2023-11-29T21:33:57.144Z,-5.78
2023-11-29T21:36:28.756Z,-5.85
2023-11-29T21:38:59.815Z,-5.90
2023-11-29T21:41:30.198Z,-5.99
2023-11-29T21:43:59.248Z,-5.93
2023-11-29T21:46:28.330Z,-6.01
2023-11-29T21:48:56.653Z,-5.95
2023-11-29T21:51:31.105Z,-6.07
2023-11-29T21:53:59.936Z,-6.05
2023-11-29T21:56:27.044Z,-6.00
2023-11-29T21:58:56.180Z,-6.01
2023-11-29T22:01:25.929Z,-5.96
2023-11-29T22:03:55.145Z,-6.02
2023-11-29T22:06:22.403Z,-6.14
2023-11-29T22:08:52.220Z,-6.08
2023-11-29T22:11:19.463Z,-6.28
2023-11-29T22:13:46.924Z,-6.18
2023-11-29T22:16:24.133Z,-6.26
2023-11-29T22:18:56.027Z,-6.37
2023-11-29T22:21:27.013Z,-6.37
2023-11-29T22:23:55.996Z,-6.39
2023-11-29T22:26:27.647Z,-6.25
2023-11-29T22:28:54.607Z,-6.28
2023-11-29T22:31:21.521Z,-6.44
2023-11-29T22:33:48.669Z,-6.42
2023-11-29T22:36:19.607Z,-6.36
2023-11-29T22:38:46.668Z,-6.60
2023-11-29T22:41:29.903Z,-6.51
2023-11-29T22:43:58.632Z,-6.43
2023-11-29T22:46:27.847Z,-6.39
2023-11-29T22:48:55.306Z,-6.43
2023-11-29T22:51:24.445Z,-6.52
2023-11-29T22:53:52.343Z,-6.65
2023-11-29T22:56:19.494Z,-6.53
2023-11-29T22:58:46.982Z,-6.46
2023-11-29T23:01:14.930Z,-6.47
2023-11-29T23:03:45.684Z,-6.59
2023-11-29T23:06:12.943Z,-6.66
2023-11-29T23:08:40.697Z,-6.68
2023-11-29T23:11:07.987Z,-6.74
2023-11-29T23:13:35.819Z,-6.83
2023-11-29T23:16:02.874Z,-6.68
2023-11-29T23:18:29.870Z,-6.68
2023-11-29T23:20:57.476Z,-6.67
2023-11-29T23:23:26.776Z,-6.59
2023-11-29T23:25:54.160Z,-6.61
2023-11-29T23:28:21.288Z,-6.58
2023-11-29T23:30:48.748Z,-6.55
2023-11-29T23:33:15.952Z,-6.49
2023-11-29T23:35:43.069Z,-6.59
2023-11-29T23:38:10.004Z,-6.97
2023-11-29T23:40:37.057Z,-6.75
2023-11-29T23:43:03.959Z,-6.69
2023-11-29T23:45:35.281Z,-6.70
2023-11-29T23:48:03.201Z,-6.83
2023-11-29T23:50:30.279Z,-6.82
2023-11-29T23:52:57.401Z,-6.73
2023-11-29T23:55:24.509Z,-6.79
2023-11-29T23:57:51.496Z,-7.10
